sensor_id;sensor_type;location;lat;lon;timestamp;temperature;humidity
9219;DHT22;4644;48.858;9.184;2023-04-12T00:01:00;9.10;99.90
9219;DHT22;4644;48.858;9.184;2023-04-12T00:03:28;9.10;99.90
9219;DHT22;4644;48.858;9.184;2023-04-12T00:05:58;9.10;99.90
9219;DHT22;4644;48.858;9.184;2023-04-12T00:08:31;9.10;99.90
9219;DHT22;4644;48.858;9.184;2023-04-12T00:11:00;9.10;99.90
9219;DHT22;4644;48.858;9.184;2023-04-12T00:13:27;9.10;99.90
9219;DHT22;4644;48.858;9.184;2023-04-12T00:15:55;9.10;99.90
9219;DHT22;4644;48.858;9.184;2023-04-12T00:18:22;9.00;99.90
9219;DHT22;4644;48.858;9.184;2023-04-12T00:20:51;9.10;99.90
9219;DHT22;4644;48.858;9.184;2023-04-12T00:23:18;9.00;99.90
9219;DHT22;4644;48.858;9.184;2023-04-12T00:25:45;9.00;99.90
9219;DHT22;4644;48.858;9.184;2023-04-12T00:28:12;8.90;99.90
9219;DHT22;4644;48.858;9.184;2023-04-12T00:30:40;8.90;99.90
9219;DHT22;4644;48.858;9.184;2023-04-12T00:33:07;8.90;99.90
9219;DHT22;4644;48.858;9.184;2023-04-12T00:35:34;8.90;99.90
9219;DHT22;4644;48.858;9.184;2023-04-12T00:38:03;8.90;99.90
9219;DHT22;4644;48.858;9.184;2023-04-12T00:40:34;8.90;99.90
9219;DHT22;4644;48.858;9.184;2023-04-12T00:43:02;9.10;99.90
9219;DHT22;4644;48.858;9.184;2023-04-12T00:45:28;9.10;99.90
9219;DHT22;4644;48.858;9.184;2023-04-12T00:47:56;9.10;99.90
9219;DHT22;4644;48.858;9.184;2023-04-12T00:50:24;9.00;99.90
9219;DHT22;4644;48.858;9.184;2023-04-12T00:52:51;8.90;99.90
9219;DHT22;4644;48.858;9.184;2023-04-12T00:55:20;8.90;99.90
9219;DHT22;4644;48.858;9.184;2023-04-12T00:57:47;8.80;99.90
9219;DHT22;4644;48.858;9.184;2023-04-12T01:00:14;8.70;99.90
9219;DHT22;4644;48.858;9.184;2023-04-12T01:02:44;8.50;99.90
9219;DHT22;4644;48.858;9.184;2023-04-12T01:05:13;8.40;99.90
9219;DHT22;4644;48.858;9.184;2023-04-12T01:07:50;8.30;99.90
9219;DHT22;4644;48.858;9.184;2023-04-12T01:10:30;8.30;99.90
9219;DHT22;4644;48.858;9.184;2023-04-12T01:13:04;8.20;99.90
9219;DHT22;4644;48.858;9.184;2023-04-12T01:15:40;8.10;99.90
9219;DHT22;4644;48.858;9.184;2023-04-12T01:18:13;8.00;99.90
9219;DHT22;4644;48.858;9.184;2023-04-12T01:20:47;8.00;99.90
9219;DHT22;4644;48.858;9.184;2023-04-12T01:26:33;7.90;99.90
9219;DHT22;4644;48.858;9.184;2023-04-12T01:29:08;7.80;99.90
9219;DHT22;4644;48.858;9.184;2023-04-12T01:31:38;7.80;99.90
9219;DHT22;4644;48.858;9.184;2023-04-12T01:34:07;7.80;99.90
9219;DHT22;4644;48.858;9.184;2023-04-12T01:36:36;7.80;99.90
9219;DHT22;4644;48.858;9.184;2023-04-12T01:39:04;7.80;99.90
9219;DHT22;4644;48.858;9.184;2023-04-12T01:41:32;7.70;99.90
9219;DHT22;4644;48.858;9.184;2023-04-12T01:43:59;7.80;99.90
9219;DHT22;4644;48.858;9.184;2023-04-12T01:46:27;7.70;99.90
9219;DHT22;4644;48.858;9.184;2023-04-12T01:48:57;7.60;99.90
9219;DHT22;4644;48.858;9.184;2023-04-12T01:51:33;7.60;99.90
9219;DHT22;4644;48.858;9.184;2023-04-12T01:54:04;7.50;99.90
9219;DHT22;4644;48.858;9.184;2023-04-12T01:56:37;7.50;99.90
9219;DHT22;4644;48.858;9.184;2023-04-12T01:59:06;7.40;99.90
9219;DHT22;4644;48.858;9.184;2023-04-12T02:01:35;7.40;99.90
9219;DHT22;4644;48.858;9.184;2023-04-12T02:04:04;7.30;99.90
9219;DHT22;4644;48.858;9.184;2023-04-12T02:06:32;7.30;99.90
9219;DHT22;4644;48.858;9.184;2023-04-12T02:09:01;7.30;99.90
9219;DHT22;4644;48.858;9.184;2023-04-12T02:11:30;7.20;99.90
9219;DHT22;4644;48.858;9.184;2023-04-12T02:13:57;7.20;99.90
9219;DHT22;4644;48.858;9.184;2023-04-12T02:16:24;7.20;99.90
9219;DHT22;4644;48.858;9.184;2023-04-12T02:18:55;7.10;99.90
9219;DHT22;4644;48.858;9.184;2023-04-12T02:21:23;7.10;99.90
9219;DHT22;4644;48.858;9.184;2023-04-12T02:23:50;7.10;99.90
9219;DHT22;4644;48.858;9.184;2023-04-12T02:26:17;7.10;99.90
9219;DHT22;4644;48.858;9.184;2023-04-12T02:28:48;7.10;99.90
9219;DHT22;4644;48.858;9.184;2023-04-12T02:31:17;7.10;99.90
9219;DHT22;4644;48.858;9.184;2023-04-12T02:33:44;7.10;99.90
9219;DHT22;4644;48.858;9.184;2023-04-12T02:36:12;7.20;99.90
9219;DHT22;4644;48.858;9.184;2023-04-12T02:38:39;7.20;99.90
9219;DHT22;4644;48.858;9.184;2023-04-12T02:41:06;7.20;99.90
9219;DHT22;4644;48.858;9.184;2023-04-12T02:43:33;7.20;99.90
9219;DHT22;4644;48.858;9.184;2023-04-12T02:46:00;7.10;99.90
9219;DHT22;4644;48.858;9.184;2023-04-12T02:48:27;7.10;99.90
9219;DHT22;4644;48.858;9.184;2023-04-12T02:50:54;7.00;99.90
9219;DHT22;4644;48.858;9.184;2023-04-12T02:53:23;7.00;99.90
9219;DHT22;4644;48.858;9.184;2023-04-12T02:55:50;7.10;99.90
9219;DHT22;4644;48.858;9.184;2023-04-12T02:58:17;7.10;99.90
9219;DHT22;4644;48.858;9.184;2023-04-12T03:00:44;7.10;99.90
9219;DHT22;4644;48.858;9.184;2023-04-12T03:03:12;7.20;99.90
9219;DHT22;4644;48.858;9.184;2023-04-12T03:05:39;7.10;99.90
9219;DHT22;4644;48.858;9.184;2023-04-12T03:08:07;7.10;99.90
9219;DHT22;4644;48.858;9.184;2023-04-12T03:10:35;7.10;99.90
9219;DHT22;4644;48.858;9.184;2023-04-12T03:13:02;7.10;99.90
9219;DHT22;4644;48.858;9.184;2023-04-12T03:15:30;7.00;99.90
9219;DHT22;4644;48.858;9.184;2023-04-12T03:17:57;7.00;99.90
9219;DHT22;4644;48.858;9.184;2023-04-12T03:20:24;7.00;99.90
9219;DHT22;4644;48.858;9.184;2023-04-12T03:22:53;7.00;99.90
9219;DHT22;4644;48.858;9.184;2023-04-12T03:25:20;7.00;99.90
9219;DHT22;4644;48.858;9.184;2023-04-12T03:27:48;7.00;99.90
9219;DHT22;4644;48.858;9.184;2023-04-12T03:30:15;7.00;99.90
9219;DHT22;4644;48.858;9.184;2023-04-12T03:32:42;7.00;99.90
9219;DHT22;4644;48.858;9.184;2023-04-12T03:35:12;7.00;99.90
9219;DHT22;4644;48.858;9.184;2023-04-12T03:37:42;6.90;99.90
9219;DHT22;4644;48.858;9.184;2023-04-12T03:40:09;6.90;99.90
9219;DHT22;4644;48.858;9.184;2023-04-12T03:42:36;6.90;99.90
9219;DHT22;4644;48.858;9.184;2023-04-12T03:45:06;6.80;99.90
9219;DHT22;4644;48.858;9.184;2023-04-12T03:47:33;6.90;99.90
9219;DHT22;4644;48.858;9.184;2023-04-12T03:50:03;6.90;99.90
9219;DHT22;4644;48.858;9.184;2023-04-12T03:52:31;6.90;99.90
9219;DHT22;4644;48.858;9.184;2023-04-12T03:54:58;6.90;99.90
9219;DHT22;4644;48.858;9.184;2023-04-12T03:57:25;6.90;99.90
9219;DHT22;4644;48.858;9.184;2023-04-12T03:59:52;6.80;99.90
9219;DHT22;4644;48.858;9.184;2023-04-12T04:02:20;6.90;99.90
9219;DHT22;4644;48.858;9.184;2023-04-12T04:04:47;6.80;99.90
9219;DHT22;4644;48.858;9.184;2023-04-12T04:07:14;6.80;99.90
9219;DHT22;4644;48.858;9.184;2023-04-12T04:09:41;6.90;99.90
9219;DHT22;4644;48.858;9.184;2023-04-12T04:12:08;6.90;99.90
9219;DHT22;4644;48.858;9.184;2023-04-12T04:14:35;6.90;99.90
9219;DHT22;4644;48.858;9.184;2023-04-12T04:17:02;6.90;99.90
9219;DHT22;4644;48.858;9.184;2023-04-12T04:19:30;6.90;99.90
9219;DHT22;4644;48.858;9.184;2023-04-12T04:21:57;6.90;99.90
9219;DHT22;4644;48.858;9.184;2023-04-12T04:24:26;6.90;99.90
9219;DHT22;4644;48.858;9.184;2023-04-12T04:26:53;6.90;99.90
9219;DHT22;4644;48.858;9.184;2023-04-12T04:29:20;6.80;99.90
9219;DHT22;4644;48.858;9.184;2023-04-12T04:31:48;6.80;99.90
9219;DHT22;4644;48.858;9.184;2023-04-12T04:34:15;6.90;99.90
9219;DHT22;4644;48.858;9.184;2023-04-12T04:36:45;6.90;99.90
9219;DHT22;4644;48.858;9.184;2023-04-12T04:39:12;6.90;99.90
9219;DHT22;4644;48.858;9.184;2023-04-12T04:41:39;6.90;99.90
9219;DHT22;4644;48.858;9.184;2023-04-12T04:44:07;6.90;99.90
9219;DHT22;4644;48.858;9.184;2023-04-12T04:46:35;6.90;99.90
9219;DHT22;4644;48.858;9.184;2023-04-12T04:49:02;6.90;99.90
9219;DHT22;4644;48.858;9.184;2023-04-12T04:51:29;6.90;99.90
9219;DHT22;4644;48.858;9.184;2023-04-12T04:53:59;6.90;99.90
9219;DHT22;4644;48.858;9.184;2023-04-12T04:56:26;7.00;99.90
9219;DHT22;4644;48.858;9.184;2023-04-12T04:58:56;7.00;99.90
9219;DHT22;4644;48.858;9.184;2023-04-12T05:01:24;7.00;99.90
9219;DHT22;4644;48.858;9.184;2023-04-12T05:03:52;7.00;99.90
9219;DHT22;4644;48.858;9.184;2023-04-12T05:06:20;7.00;99.90
9219;DHT22;4644;48.858;9.184;2023-04-12T05:08:47;7.00;99.90
9219;DHT22;4644;48.858;9.184;2023-04-12T05:11:15;6.90;99.90
9219;DHT22;4644;48.858;9.184;2023-04-12T05:13:42;7.00;99.90
9219;DHT22;4644;48.858;9.184;2023-04-12T05:16:10;6.90;99.90
9219;DHT22;4644;48.858;9.184;2023-04-12T05:18:37;6.90;99.90
9219;DHT22;4644;48.858;9.184;2023-04-12T05:21:05;6.90;99.90
9219;DHT22;4644;48.858;9.184;2023-04-12T05:23:34;6.90;99.90
9219;DHT22;4644;48.858;9.184;2023-04-12T05:26:02;7.00;99.90
9219;DHT22;4644;48.858;9.184;2023-04-12T05:28:30;7.00;99.90
9219;DHT22;4644;48.858;9.184;2023-04-12T05:30:57;7.00;99.90
9219;DHT22;4644;48.858;9.184;2023-04-12T05:33:24;7.00;99.90
9219;DHT22;4644;48.858;9.184;2023-04-12T05:35:51;6.90;99.90
9219;DHT22;4644;48.858;9.184;2023-04-12T05:38:18;6.90;99.90
9219;DHT22;4644;48.858;9.184;2023-04-12T05:40:45;7.00;99.90
9219;DHT22;4644;48.858;9.184;2023-04-12T05:43:13;6.90;99.90
9219;DHT22;4644;48.858;9.184;2023-04-12T05:45:41;7.00;99.90
9219;DHT22;4644;48.858;9.184;2023-04-12T05:48:08;6.90;99.90
9219;DHT22;4644;48.858;9.184;2023-04-12T05:50:35;7.00;99.90
9219;DHT22;4644;48.858;9.184;2023-04-12T05:53:03;7.00;99.90
9219;DHT22;4644;48.858;9.184;2023-04-12T05:55:30;7.00;99.90
9219;DHT22;4644;48.858;9.184;2023-04-12T05:57:56;7.00;99.90
9219;DHT22;4644;48.858;9.184;2023-04-12T06:00:24;7.00;99.90
9219;DHT22;4644;48.858;9.184;2023-04-12T06:02:52;7.10;99.90
9219;DHT22;4644;48.858;9.184;2023-04-12T06:05:19;7.10;99.90
9219;DHT22;4644;48.858;9.184;2023-04-12T06:07:47;7.10;99.90
9219;DHT22;4644;48.858;9.184;2023-04-12T06:10:15;7.10;99.90
9219;DHT22;4644;48.858;9.184;2023-04-12T06:12:43;7.10;99.90
9219;DHT22;4644;48.858;9.184;2023-04-12T06:15:10;7.10;99.90
9219;DHT22;4644;48.858;9.184;2023-04-12T06:17:37;7.20;99.90
9219;DHT22;4644;48.858;9.184;2023-04-12T06:20:07;7.20;99.90
9219;DHT22;4644;48.858;9.184;2023-04-12T06:22:35;7.20;99.90
9219;DHT22;4644;48.858;9.184;2023-04-12T06:25:02;7.20;99.90
9219;DHT22;4644;48.858;9.184;2023-04-12T06:27:29;7.30;99.90
9219;DHT22;4644;48.858;9.184;2023-04-12T06:29:56;7.30;99.90
9219;DHT22;4644;48.858;9.184;2023-04-12T06:32:24;7.30;99.90
9219;DHT22;4644;48.858;9.184;2023-04-12T06:34:51;7.30;99.90
9219;DHT22;4644;48.858;9.184;2023-04-12T06:37:20;7.30;99.90
9219;DHT22;4644;48.858;9.184;2023-04-12T06:39:47;7.40;99.90
9219;DHT22;4644;48.858;9.184;2023-04-12T06:42:14;7.40;99.90
9219;DHT22;4644;48.858;9.184;2023-04-12T06:44:41;7.40;99.90
9219;DHT22;4644;48.858;9.184;2023-04-12T06:47:08;7.40;99.90
9219;DHT22;4644;48.858;9.184;2023-04-12T06:49:36;7.40;99.90
9219;DHT22;4644;48.858;9.184;2023-04-12T06:52:03;7.40;99.90
9219;DHT22;4644;48.858;9.184;2023-04-12T06:54:32;7.50;99.90
9219;DHT22;4644;48.858;9.184;2023-04-12T06:56:59;7.50;99.90
9219;DHT22;4644;48.858;9.184;2023-04-12T06:59:27;7.50;99.90
9219;DHT22;4644;48.858;9.184;2023-04-12T07:01:54;7.60;99.90
9219;DHT22;4644;48.858;9.184;2023-04-12T07:04:21;7.60;99.90
9219;DHT22;4644;48.858;9.184;2023-04-12T07:06:48;7.60;99.90
9219;DHT22;4644;48.858;9.184;2023-04-12T07:09:15;7.70;99.90
9219;DHT22;4644;48.858;9.184;2023-04-12T07:11:43;7.70;99.90
9219;DHT22;4644;48.858;9.184;2023-04-12T07:14:10;7.70;99.90
9219;DHT22;4644;48.858;9.184;2023-04-12T07:16:37;7.70;99.90
9219;DHT22;4644;48.858;9.184;2023-04-12T07:19:04;7.70;99.90
9219;DHT22;4644;48.858;9.184;2023-04-12T07:21:31;7.70;99.90
9219;DHT22;4644;48.858;9.184;2023-04-12T07:23:58;7.70;99.90
9219;DHT22;4644;48.858;9.184;2023-04-12T07:26:26;7.70;99.90
9219;DHT22;4644;48.858;9.184;2023-04-12T07:28:54;7.70;99.90
9219;DHT22;4644;48.858;9.184;2023-04-12T07:31:21;7.80;99.90
9219;DHT22;4644;48.858;9.184;2023-04-12T07:33:49;7.70;99.90
9219;DHT22;4644;48.858;9.184;2023-04-12T07:36:16;7.80;99.90
9219;DHT22;4644;48.858;9.184;2023-04-12T07:38:48;7.90;99.90
9219;DHT22;4644;48.858;9.184;2023-04-12T07:41:20;7.90;99.90
9219;DHT22;4644;48.858;9.184;2023-04-12T07:43:47;8.00;99.90
9219;DHT22;4644;48.858;9.184;2023-04-12T07:46:15;8.00;99.90
9219;DHT22;4644;48.858;9.184;2023-04-12T07:48:43;8.00;99.90
9219;DHT22;4644;48.858;9.184;2023-04-12T07:51:10;7.90;99.90
9219;DHT22;4644;48.858;9.184;2023-04-12T07:53:37;8.00;99.90
9219;DHT22;4644;48.858;9.184;2023-04-12T07:56:06;8.00;99.90
9219;DHT22;4644;48.858;9.184;2023-04-12T07:58:33;8.00;99.90
9219;DHT22;4644;48.858;9.184;2023-04-12T08:01:00;8.00;99.90
9219;DHT22;4644;48.858;9.184;2023-04-12T08:03:29;8.00;99.90
9219;DHT22;4644;48.858;9.184;2023-04-12T08:05:56;8.10;99.90
9219;DHT22;4644;48.858;9.184;2023-04-12T08:08:23;8.10;99.90
9219;DHT22;4644;48.858;9.184;2023-04-12T08:10:50;8.10;99.90
9219;DHT22;4644;48.858;9.184;2023-04-12T08:13:20;8.10;99.90
9219;DHT22;4644;48.858;9.184;2023-04-12T08:15:47;8.20;99.90
9219;DHT22;4644;48.858;9.184;2023-04-12T08:18:14;8.20;99.90
9219;DHT22;4644;48.858;9.184;2023-04-12T08:20:43;8.30;99.90
9219;DHT22;4644;48.858;9.184;2023-04-12T08:23:10;8.30;99.90
9219;DHT22;4644;48.858;9.184;2023-04-12T08:25:37;8.30;99.90
9219;DHT22;4644;48.858;9.184;2023-04-12T08:28:04;8.30;99.90
9219;DHT22;4644;48.858;9.184;2023-04-12T08:30:33;8.40;99.90
9219;DHT22;4644;48.858;9.184;2023-04-12T08:33:00;8.40;99.90
9219;DHT22;4644;48.858;9.184;2023-04-12T08:35:28;8.40;99.90
9219;DHT22;4644;48.858;9.184;2023-04-12T08:37:57;8.40;99.90
9219;DHT22;4644;48.858;9.184;2023-04-12T08:40:31;8.40;99.90
9219;DHT22;4644;48.858;9.184;2023-04-12T08:43:00;8.50;99.90
9219;DHT22;4644;48.858;9.184;2023-04-12T08:45:29;8.50;99.90
9219;DHT22;4644;48.858;9.184;2023-04-12T08:47:58;8.50;99.90
9219;DHT22;4644;48.858;9.184;2023-04-12T08:50:26;8.50;99.90
9219;DHT22;4644;48.858;9.184;2023-04-12T08:52:56;8.50;99.90
9219;DHT22;4644;48.858;9.184;2023-04-12T08:55:23;8.60;99.90
9219;DHT22;4644;48.858;9.184;2023-04-12T08:57:53;8.70;99.90
9219;DHT22;4644;48.858;9.184;2023-04-12T09:00:21;8.70;99.90
9219;DHT22;4644;48.858;9.184;2023-04-12T09:02:48;8.80;99.90
9219;DHT22;4644;48.858;9.184;2023-04-12T09:05:16;8.90;99.90
9219;DHT22;4644;48.858;9.184;2023-04-12T09:07:45;8.90;99.90
9219;DHT22;4644;48.858;9.184;2023-04-12T09:10:29;8.90;99.90
9219;DHT22;4644;48.858;9.184;2023-04-12T09:12:57;9.00;99.90
9219;DHT22;4644;48.858;9.184;2023-04-12T09:15:24;9.00;99.90
9219;DHT22;4644;48.858;9.184;2023-04-12T09:18:02;9.10;99.90
9219;DHT22;4644;48.858;9.184;2023-04-12T09:20:30;9.10;99.90
9219;DHT22;4644;48.858;9.184;2023-04-12T09:22:57;9.20;99.90
9219;DHT22;4644;48.858;9.184;2023-04-12T09:25:38;9.20;99.90
9219;DHT22;4644;48.858;9.184;2023-04-12T09:28:17;9.20;99.90
9219;DHT22;4644;48.858;9.184;2023-04-12T09:30:45;9.30;99.90
9219;DHT22;4644;48.858;9.184;2023-04-12T09:33:17;9.40;99.90
9219;DHT22;4644;48.858;9.184;2023-04-12T09:35:44;9.50;99.90
9219;DHT22;4644;48.858;9.184;2023-04-12T09:38:11;9.50;99.90
9219;DHT22;4644;48.858;9.184;2023-04-12T09:40:40;9.70;99.90
9219;DHT22;4644;48.858;9.184;2023-04-12T09:43:07;9.70;99.90
9219;DHT22;4644;48.858;9.184;2023-04-12T09:45:35;9.80;99.90
9219;DHT22;4644;48.858;9.184;2023-04-12T09:48:04;9.90;99.90
9219;DHT22;4644;48.858;9.184;2023-04-12T09:50:31;9.90;99.90
9219;DHT22;4644;48.858;9.184;2023-04-12T09:53:00;10.00;99.90
9219;DHT22;4644;48.858;9.184;2023-04-12T09:55:29;10.00;99.90
9219;DHT22;4644;48.858;9.184;2023-04-12T09:58:01;10.00;99.90
9219;DHT22;4644;48.858;9.184;2023-04-12T10:00:30;10.10;99.90
9219;DHT22;4644;48.858;9.184;2023-04-12T10:02:59;10.20;99.90
9219;DHT22;4644;48.858;9.184;2023-04-12T10:05:26;10.20;99.90
9219;DHT22;4644;48.858;9.184;2023-04-12T10:07:53;10.30;99.90
9219;DHT22;4644;48.858;9.184;2023-04-12T10:10:21;10.30;99.90
9219;DHT22;4644;48.858;9.184;2023-04-12T10:12:49;10.40;99.90
9219;DHT22;4644;48.858;9.184;2023-04-12T10:15:17;10.50;99.90
9219;DHT22;4644;48.858;9.184;2023-04-12T10:17:49;10.60;99.90
9219;DHT22;4644;48.858;9.184;2023-04-12T10:20:18;10.60;99.90
9219;DHT22;4644;48.858;9.184;2023-04-12T10:22:46;10.70;99.90
9219;DHT22;4644;48.858;9.184;2023-04-12T10:25:14;10.80;99.90
9219;DHT22;4644;48.858;9.184;2023-04-12T10:27:43;10.80;99.90
9219;DHT22;4644;48.858;9.184;2023-04-12T10:30:23;10.90;99.90
9219;DHT22;4644;48.858;9.184;2023-04-12T10:33:14;10.90;99.90
9219;DHT22;4644;48.858;9.184;2023-04-12T10:35:57;11.00;99.90
9219;DHT22;4644;48.858;9.184;2023-04-12T10:38:27;11.10;99.90
9219;DHT22;4644;48.858;9.184;2023-04-12T10:41:16;11.20;99.90
9219;DHT22;4644;48.858;9.184;2023-04-12T10:43:45;11.30;99.90
9219;DHT22;4644;48.858;9.184;2023-04-12T10:49:14;11.30;99.90
9219;DHT22;4644;48.858;9.184;2023-04-12T10:52:11;11.50;99.90
9219;DHT22;4644;48.858;9.184;2023-04-12T10:54:41;11.60;99.90
9219;DHT22;4644;48.858;9.184;2023-04-12T10:57:42;11.60;99.90
9219;DHT22;4644;48.858;9.184;2023-04-12T11:00:10;11.70;99.90
9219;DHT22;4644;48.858;9.184;2023-04-12T11:03:06;11.70;99.90
9219;DHT22;4644;48.858;9.184;2023-04-12T11:06:00;11.80;99.90
9219;DHT22;4644;48.858;9.184;2023-04-12T11:08:28;11.90;99.90
9219;DHT22;4644;48.858;9.184;2023-04-12T11:10:59;12.00;99.90
9219;DHT22;4644;48.858;9.184;2023-04-12T11:13:28;12.00;99.90
9219;DHT22;4644;48.858;9.184;2023-04-12T11:15:55;12.20;99.90
9219;DHT22;4644;48.858;9.184;2023-04-12T11:18:24;12.40;99.90
9219;DHT22;4644;48.858;9.184;2023-04-12T11:20:52;12.60;99.90
9219;DHT22;4644;48.858;9.184;2023-04-12T11:23:21;12.70;99.90
9219;DHT22;4644;48.858;9.184;2023-04-12T11:25:50;12.90;99.90
9219;DHT22;4644;48.858;9.184;2023-04-12T11:28:21;13.00;99.90
9219;DHT22;4644;48.858;9.184;2023-04-12T11:30:50;13.00;99.90
9219;DHT22;4644;48.858;9.184;2023-04-12T11:33:33;13.10;99.90
9219;DHT22;4644;48.858;9.184;2023-04-12T11:36:05;13.10;99.90
9219;DHT22;4644;48.858;9.184;2023-04-12T11:38:35;13.30;99.90
9219;DHT22;4644;48.858;9.184;2023-04-12T11:41:04;13.40;99.90
9219;DHT22;4644;48.858;9.184;2023-04-12T11:43:32;13.50;99.90
9219;DHT22;4644;48.858;9.184;2023-04-12T11:45:59;13.60;99.90
9219;DHT22;4644;48.858;9.184;2023-04-12T11:48:27;13.70;99.90
9219;DHT22;4644;48.858;9.184;2023-04-12T11:50:55;13.80;99.90
9219;DHT22;4644;48.858;9.184;2023-04-12T11:53:26;13.90;99.90
9219;DHT22;4644;48.858;9.184;2023-04-12T11:55:57;13.90;99.90
9219;DHT22;4644;48.858;9.184;2023-04-12T11:58:27;13.90;99.90
9219;DHT22;4644;48.858;9.184;2023-04-12T12:00:55;14.00;99.90
9219;DHT22;4644;48.858;9.184;2023-04-12T12:03:23;14.00;99.90
9219;DHT22;4644;48.858;9.184;2023-04-12T12:05:54;14.10;99.90
9219;DHT22;4644;48.858;9.184;2023-04-12T12:08:21;14.10;99.90
9219;DHT22;4644;48.858;9.184;2023-04-12T12:10:49;14.20;99.90
9219;DHT22;4644;48.858;9.184;2023-04-12T12:13:17;14.20;99.90
9219;DHT22;4644;48.858;9.184;2023-04-12T12:15:44;14.10;99.90
9219;DHT22;4644;48.858;9.184;2023-04-12T12:18:11;14.10;99.90
9219;DHT22;4644;48.858;9.184;2023-04-12T12:20:40;14.20;99.90
9219;DHT22;4644;48.858;9.184;2023-04-12T12:23:08;14.20;99.90
9219;DHT22;4644;48.858;9.184;2023-04-12T12:25:35;14.20;99.90
9219;DHT22;4644;48.858;9.184;2023-04-12T12:28:02;14.30;99.90
9219;DHT22;4644;48.858;9.184;2023-04-12T12:30:37;14.40;99.90
9219;DHT22;4644;48.858;9.184;2023-04-12T12:33:05;14.50;99.90
9219;DHT22;4644;48.858;9.184;2023-04-12T12:35:34;14.50;99.90
9219;DHT22;4644;48.858;9.184;2023-04-12T12:38:06;14.40;99.90
9219;DHT22;4644;48.858;9.184;2023-04-12T12:40:33;14.40;99.90
9219;DHT22;4644;48.858;9.184;2023-04-12T12:43:00;14.30;99.90
9219;DHT22;4644;48.858;9.184;2023-04-12T12:45:30;14.40;99.90
9219;DHT22;4644;48.858;9.184;2023-04-12T12:47:59;14.40;99.90
9219;DHT22;4644;48.858;9.184;2023-04-12T12:50:27;14.60;99.90
9219;DHT22;4644;48.858;9.184;2023-04-12T12:52:55;14.70;99.90
9219;DHT22;4644;48.858;9.184;2023-04-12T12:55:23;14.80;99.90
9219;DHT22;4644;48.858;9.184;2023-04-12T12:57:52;15.00;99.90
9219;DHT22;4644;48.858;9.184;2023-04-12T13:00:22;15.10;99.90
9219;DHT22;4644;48.858;9.184;2023-04-12T13:02:50;15.20;99.90
9219;DHT22;4644;48.858;9.184;2023-04-12T13:05:20;15.00;99.90
9219;DHT22;4644;48.858;9.184;2023-04-12T13:07:47;14.80;99.90
9219;DHT22;4644;48.858;9.184;2023-04-12T13:10:14;14.80;99.90
9219;DHT22;4644;48.858;9.184;2023-04-12T13:12:41;14.70;99.90
9219;DHT22;4644;48.858;9.184;2023-04-12T13:15:09;14.80;99.90
9219;DHT22;4644;48.858;9.184;2023-04-12T13:17:38;14.80;99.90
9219;DHT22;4644;48.858;9.184;2023-04-12T13:20:06;14.90;99.90
9219;DHT22;4644;48.858;9.184;2023-04-12T13:22:35;14.90;99.90
9219;DHT22;4644;48.858;9.184;2023-04-12T13:25:02;15.00;99.90
9219;DHT22;4644;48.858;9.184;2023-04-12T13:27:30;15.10;99.90
9219;DHT22;4644;48.858;9.184;2023-04-12T13:29:57;15.10;99.90
9219;DHT22;4644;48.858;9.184;2023-04-12T13:32:24;14.90;99.90
9219;DHT22;4644;48.858;9.184;2023-04-12T13:34:51;14.80;99.90
9219;DHT22;4644;48.858;9.184;2023-04-12T13:37:18;14.70;99.90
9219;DHT22;4644;48.858;9.184;2023-04-12T13:39:46;14.70;99.90
9219;DHT22;4644;48.858;9.184;2023-04-12T13:42:14;14.60;99.90
9219;DHT22;4644;48.858;9.184;2023-04-12T13:44:44;14.70;99.90
9219;DHT22;4644;48.858;9.184;2023-04-12T13:47:13;14.90;99.90
9219;DHT22;4644;48.858;9.184;2023-04-12T13:49:40;15.10;99.90
9219;DHT22;4644;48.858;9.184;2023-04-12T13:52:07;15.30;99.90
9219;DHT22;4644;48.858;9.184;2023-04-12T13:54:36;15.40;99.90
9219;DHT22;4644;48.858;9.184;2023-04-12T13:57:05;15.60;99.90
9219;DHT22;4644;48.858;9.184;2023-04-12T13:59:32;15.70;99.90
9219;DHT22;4644;48.858;9.184;2023-04-12T14:02:00;15.60;99.90
9219;DHT22;4644;48.858;9.184;2023-04-12T14:04:27;15.40;99.90
9219;DHT22;4644;48.858;9.184;2023-04-12T14:06:55;15.30;99.90
9219;DHT22;4644;48.858;9.184;2023-04-12T14:09:23;15.00;99.90
9219;DHT22;4644;48.858;9.184;2023-04-12T14:11:53;15.00;99.90
9219;DHT22;4644;48.858;9.184;2023-04-12T14:14:23;15.00;99.90
9219;DHT22;4644;48.858;9.184;2023-04-12T14:16:50;15.00;99.90
9219;DHT22;4644;48.858;9.184;2023-04-12T14:19:18;15.00;99.90
9219;DHT22;4644;48.858;9.184;2023-04-12T14:21:51;15.00;99.90
9219;DHT22;4644;48.858;9.184;2023-04-12T14:24:19;15.00;99.90
9219;DHT22;4644;48.858;9.184;2023-04-12T14:26:46;15.00;99.90
9219;DHT22;4644;48.858;9.184;2023-04-12T14:29:14;15.10;99.90
9219;DHT22;4644;48.858;9.184;2023-04-12T14:31:43;15.30;99.90
9219;DHT22;4644;48.858;9.184;2023-04-12T14:34:10;15.50;99.90
9219;DHT22;4644;48.858;9.184;2023-04-12T14:36:38;15.70;99.90
9219;DHT22;4644;48.858;9.184;2023-04-12T14:39:05;15.80;99.90
9219;DHT22;4644;48.858;9.184;2023-04-12T14:41:32;15.80;99.90
9219;DHT22;4644;48.858;9.184;2023-04-12T14:43:59;15.90;99.90
9219;DHT22;4644;48.858;9.184;2023-04-12T14:46:26;16.00;99.90
9219;DHT22;4644;48.858;9.184;2023-04-12T14:48:55;16.20;99.90
9219;DHT22;4644;48.858;9.184;2023-04-12T14:51:24;16.10;99.90
9219;DHT22;4644;48.858;9.184;2023-04-12T14:53:52;16.00;99.90
9219;DHT22;4644;48.858;9.184;2023-04-12T14:56:21;16.00;99.90
9219;DHT22;4644;48.858;9.184;2023-04-12T14:58:50;15.90;99.90
9219;DHT22;4644;48.858;9.184;2023-04-12T15:01:19;15.90;99.90
9219;DHT22;4644;48.858;9.184;2023-04-12T15:03:46;15.80;99.90
9219;DHT22;4644;48.858;9.184;2023-04-12T15:06:14;15.80;99.90
9219;DHT22;4644;48.858;9.184;2023-04-12T15:08:41;15.60;99.90
9219;DHT22;4644;48.858;9.184;2023-04-12T15:11:09;15.50;99.90
9219;DHT22;4644;48.858;9.184;2023-04-12T15:13:36;15.40;99.90
9219;DHT22;4644;48.858;9.184;2023-04-12T15:16:06;15.10;99.90
9219;DHT22;4644;48.858;9.184;2023-04-12T15:18:35;14.50;99.90
9219;DHT22;4644;48.858;9.184;2023-04-12T15:21:05;13.00;99.90
9219;DHT22;4644;48.858;9.184;2023-04-12T15:23:34;11.70;99.90
9219;DHT22;4644;48.858;9.184;2023-04-12T15:26:01;11.10;99.90
9219;DHT22;4644;48.858;9.184;2023-04-12T15:28:31;10.60;99.90
9219;DHT22;4644;48.858;9.184;2023-04-12T15:30:58;10.30;99.90
9219;DHT22;4644;48.858;9.184;2023-04-12T15:33:25;10.00;99.90
9219;DHT22;4644;48.858;9.184;2023-04-12T15:35:53;9.90;99.90
9219;DHT22;4644;48.858;9.184;2023-04-12T15:38:21;9.80;99.90
9219;DHT22;4644;48.858;9.184;2023-04-12T15:40:52;9.70;99.90
9219;DHT22;4644;48.858;9.184;2023-04-12T15:43:20;9.60;99.90
9219;DHT22;4644;48.858;9.184;2023-04-12T15:45:47;9.50;99.90
9219;DHT22;4644;48.858;9.184;2023-04-12T15:48:17;9.50;99.90
9219;DHT22;4644;48.858;9.184;2023-04-12T15:50:44;9.40;99.90
9219;DHT22;4644;48.858;9.184;2023-04-12T15:53:11;9.40;99.90
9219;DHT22;4644;48.858;9.184;2023-04-12T15:55:40;9.40;99.90
9219;DHT22;4644;48.858;9.184;2023-04-12T15:58:09;9.50;99.90
9219;DHT22;4644;48.858;9.184;2023-04-12T16:00:36;9.60;99.90
9219;DHT22;4644;48.858;9.184;2023-04-12T16:03:04;9.80;99.90
9219;DHT22;4644;48.858;9.184;2023-04-12T16:05:32;9.80;99.90
9219;DHT22;4644;48.858;9.184;2023-04-12T16:07:59;9.90;99.90
9219;DHT22;4644;48.858;9.184;2023-04-12T16:10:26;10.00;99.90
9219;DHT22;4644;48.858;9.184;2023-04-12T16:12:55;10.00;99.90
9219;DHT22;4644;48.858;9.184;2023-04-12T16:15:23;10.20;99.90
9219;DHT22;4644;48.858;9.184;2023-04-12T16:17:51;10.30;99.90
9219;DHT22;4644;48.858;9.184;2023-04-12T16:20:19;10.40;99.90
9219;DHT22;4644;48.858;9.184;2023-04-12T16:22:47;10.40;99.90
9219;DHT22;4644;48.858;9.184;2023-04-12T16:25:14;10.50;99.90
9219;DHT22;4644;48.858;9.184;2023-04-12T16:27:42;10.50;99.90